Dades meteomassalio
Diari Summary for Febrer 22, 2018 Units:  English    Metric   Both
« Previous Day
Next Day »
Diari Semanal Mensual Anual Personalitzat
  Maxima: Minima: Mijana:
Temperatura: TemperatureC °F 1.1 °F 5.1 °F
Rosada: DewpointC °F -9.5 °F -3.9 °F
Humitat: Humidity % 32 % 54 %
Velocitat del vent: WindSpeedKMH mph 11.1 mph 26.6 mph
Racha vent: WindSpeedGustKMH mph - -
Vent:- - NW
Pressio: PressurehPa in 1007.7 in -
Pluja: 0.0 in    
Historical Graphs
 
 
Tabular Data for Febrer 22, 2018
Time Temperature Dew Point Pressure Wind Wind Speed Wind Gust Humidity Rainfall Rate (Hourly) solar Conditions
TemperatureC °F DewpointC °F PressurehPa in Calm     Humidity % HourlyPrecipMM in SolarRadiationWatts/m^2 W/m2 Conditions
00:03 3.3 °F -2.8 °F 1012.8 in NNW 29.6 mph 29.6 mph 64 % 0.0 in 0.0 W/m2 CLR
00:08 3.3 °F -2.8 °F 1012.8 in WNW 33.3 mph 33.3 mph 64 % 0.0 in 0.0 W/m2 CLR
00:13 3.3 °F -2.6 °F 1012.4 in NW 25.9 mph 25.9 mph 65 % 0.0 in 0.0 W/m2 CLR
00:18 3.3 °F -2.6 °F 1012.4 in NW 31.5 mph 31.5 mph 65 % 0.0 in 0.0 W/m2 CLR
00:23 3.3 °F -2.6 °F 1012.4 in NW 29.6 mph 29.6 mph 65 % 0.0 in 0.0 W/m2 CLR
00:28 3.3 °F -2.6 °F 1012.4 in WNW 25.9 mph 25.9 mph 65 % 0.0 in 0.0 W/m2 CLR
00:33 3.3 °F -2.6 °F 1012.4 in NW 29.6 mph 29.6 mph 65 % 0.0 in 0.0 W/m2 CLR
00:38 3.3 °F -2.6 °F 1012.4 in NW 31.5 mph 31.5 mph 65 % 0.0 in 0.0 W/m2 CLR
00:43 3.3 °F -2.6 °F 1012.4 in NW 27.8 mph 27.8 mph 65 % 0.0 in 0.0 W/m2 CLR
00:48 3.3 °F -2.6 °F 1012.4 in NNW 35.2 mph 35.2 mph 65 % 0.0 in 0.0 W/m2 CLR
00:53 3.3 °F -2.6 °F 1012.4 in NW 29.0 mph 29.0 mph 65 % 0.0 in 0.0 W/m2 CLR
00:58 3.3 °F -2.6 °F 1012.4 in WNW 25.9 mph 25.9 mph 65 % 0.0 in 0.0 W/m2 CLR
01:03 3.3 °F -2.4 °F 1012.1 in NNW 27.8 mph 27.8 mph 66 % 0.0 in 0.0 W/m2 CLR
01:08 2.8 °F -2.9 °F 1012.1 in NW 33.3 mph 33.3 mph 66 % 0.0 in 0.0 W/m2 CLR
01:13 2.8 °F -2.9 °F 1012.1 in WNW 35.2 mph 35.2 mph 66 % 0.0 in 0.0 W/m2 CLR
01:18 2.8 °F -2.9 °F 1012.1 in NW 31.5 mph 31.5 mph 66 % 0.0 in 0.0 W/m2 CLR
01:23 2.8 °F -2.9 °F 1012.1 in NW 31.5 mph 31.5 mph 66 % 0.0 in 0.0 W/m2 CLR
01:28 2.8 °F -2.9 °F 1012.1 in NW 31.5 mph 31.5 mph 66 % 0.0 in 0.0 W/m2 CLR
01:33 2.8 °F -2.9 °F 1012.1 in WNW 29.6 mph 29.6 mph 66 % 0.0 in 0.0 W/m2 CLR
01:38 2.8 °F -2.9 °F 1012.1 in WNW 29.6 mph 29.6 mph 66 % 0.0 in 0.0 W/m2 CLR
01:43 2.8 °F -2.9 °F 1012.1 in NW 33.8 mph 33.8 mph 66 % 0.0 in 0.0 W/m2 CLR
01:48 2.8 °F -2.9 °F 1012.1 in NW 27.8 mph 27.8 mph 66 % 0.0 in 0.0 W/m2 CLR
01:53 2.8 °F -2.9 °F 1011.7 in NW 25.9 mph 25.9 mph 66 % 0.0 in 0.0 W/m2 CLR
01:58 2.8 °F -2.7 °F 1012.1 in WNW 25.9 mph 25.9 mph 67 % 0.0 in 0.0 W/m2 CLR
02:03 2.8 °F -2.7 °F 1012.1 in WNW 22.2 mph 22.2 mph 67 % 0.0 in 0.0 W/m2 CLR
02:08 2.8 °F -2.7 °F 1012.1 in WNW 27.8 mph 27.8 mph 67 % 0.0 in 0.0 W/m2 CLR
02:13 2.8 °F -2.7 °F 1012.1 in WNW 24.1 mph 24.1 mph 67 % 0.0 in 0.0 W/m2 CLR
02:18 2.8 °F -2.7 °F 1012.1 in WNW 25.9 mph 25.9 mph 67 % 0.0 in 0.0 W/m2 CLR
02:23 2.8 °F -2.7 °F 1012.1 in NW 22.5 mph 22.5 mph 67 % 0.0 in 0.0 W/m2 CLR
02:28 3.3 °F -2.2 °F 1012.1 in WNW 22.5 mph 22.5 mph 67 % 0.0 in 0.0 W/m2 CLR
02:33 2.8 °F -2.7 °F 1012.1 in NW 24.1 mph 24.1 mph 67 % 0.0 in 0.0 W/m2 CLR
02:38 2.8 °F -2.7 °F 1012.1 in NW 20.4 mph 20.4 mph 67 % 0.0 in 0.0 W/m2 CLR
02:43 2.8 °F -2.6 °F 1012.1 in NW 19.3 mph 19.3 mph 68 % 0.0 in 0.0 W/m2 CLR
02:48 2.8 °F -2.6 °F 1011.7 in WNW 22.2 mph 22.2 mph 68 % 0.0 in 0.0 W/m2 CLR
02:53 2.8 °F -2.6 °F 1011.7 in NW 25.9 mph 25.9 mph 68 % 0.0 in 0.0 W/m2 CLR
02:58 2.8 °F -2.6 °F 1011.7 in NW 22.2 mph 22.2 mph 68 % 0.0 in 0.0 W/m2 CLR
03:03 2.8 °F -2.6 °F 1011.7 in NW 20.4 mph 20.4 mph 68 % 0.0 in 0.0 W/m2 CLR
03:09 2.8 °F -2.3 °F 1011.7 in WNW 27.8 mph 27.8 mph 69 % 0.0 in 0.0 W/m2 CLR
03:14 2.8 °F -2.3 °F 1011.7 in NW 24.1 mph 24.1 mph 69 % 0.0 in 0.0 W/m2 CLR
03:19 2.8 °F -2.3 °F 1011.7 in WNW 22.5 mph 22.5 mph 69 % 0.0 in 0.0 W/m2 CLR
03:24 2.8 °F -2.2 °F 1011.7 in NW 29.6 mph 29.6 mph 70 % 0.0 in 0.0 W/m2 CLR
03:29 2.8 °F -2.2 °F 1011.4 in WNW 27.8 mph 27.8 mph 70 % 0.0 in 0.0 W/m2 CLR
03:34 2.8 °F -2.2 °F 1011.4 in NW 29.6 mph 29.6 mph 70 % 0.0 in 0.0 W/m2 CLR
03:39 2.8 °F -2.2 °F 1011.4 in NW 27.8 mph 27.8 mph 70 % 0.0 in 0.0 W/m2 CLR
03:44 2.8 °F -2.2 °F 1011.4 in NW 27.4 mph 27.4 mph 70 % 0.0 in 0.0 W/m2 CLR
03:49 2.8 °F -2.2 °F 1011.1 in WNW 25.9 mph 25.9 mph 70 % 0.0 in 0.0 W/m2 CLR
03:51 2.8 °F -2.2 °F 1011.1 in WNW 22.5 mph 22.5 mph 70 % 0.0 in 0.0 W/m2 CLR
03:56 2.8 °F -2.2 °F 1011.1 in WNW 31.5 mph 31.5 mph 70 % 0.0 in 0.0 W/m2 CLR
04:01 2.8 °F -2.2 °F 1011.1 in WNW 31.5 mph 31.5 mph 70 % 0.0 in 0.0 W/m2 CLR
04:06 2.8 °F -2.2 °F 1011.1 in WNW 22.2 mph 22.2 mph 70 % 0.0 in 0.0 W/m2 CLR
04:11 2.8 °F -2.2 °F 1011.1 in NW 29.6 mph 29.6 mph 70 % 0.0 in 0.0 W/m2 CLR
04:17 2.8 °F -2.2 °F 1011.1 in NW 24.1 mph 24.1 mph 70 % 0.0 in 0.0 W/m2 CLR
04:22 2.2 °F -2.7 °F 1011.1 in WNW 22.2 mph 22.2 mph 70 % 0.0 in 0.0 W/m2 CLR
04:27 2.2 °F -2.7 °F 1011.1 in NW 18.5 mph 18.5 mph 70 % 0.0 in 0.0 W/m2 CLR
04:32 2.2 °F -2.7 °F 1011.1 in WNW 18.5 mph 18.5 mph 70 % 0.0 in 0.0 W/m2 CLR
04:37 2.2 °F -2.7 °F 1010.7 in NW 16.7 mph 16.7 mph 70 % 0.0 in 0.0 W/m2 CLR
04:42 2.2 °F -2.5 °F 1010.7 in WNW 14.8 mph 14.8 mph 71 % 0.0 in 0.0 W/m2 CLR
04:47 2.2 °F -2.5 °F 1010.7 in WNW 18.5 mph 18.5 mph 71 % 0.0 in 0.0 W/m2 CLR
04:52 2.2 °F -2.5 °F 1010.7 in WNW 18.5 mph 18.5 mph 71 % 0.0 in 0.0 W/m2 CLR
04:57 2.2 °F -2.3 °F 1010.7 in WNW 22.2 mph 22.2 mph 72 % 0.0 in 0.0 W/m2 CLR
05:02 2.2 °F -2.3 °F 1010.7 in WNW 18.5 mph 18.5 mph 72 % 0.0 in 0.0 W/m2 CLR
05:07 1.7 °F -2.8 °F 1010.7 in NW 18.5 mph 18.5 mph 72 % 0.0 in 0.0 W/m2 CLR
05:12 2.2 °F -2.3 °F 1010.7 in West 18.5 mph 18.5 mph 72 % 0.0 in 0.0 W/m2 CLR
05:17 1.7 °F -2.8 °F 1010.7 in WNW 22.2 mph 22.2 mph 72 % 0.0 in 0.0 W/m2 CLR
05:22 1.7 °F -2.8 °F 1010.7 in West 22.2 mph 22.2 mph 72 % 0.0 in 0.0 W/m2 CLR
05:27 2.2 °F -2.3 °F 1010.7 in West 20.4 mph 20.4 mph 72 % 0.0 in 0.0 W/m2 CLR
05:32 1.7 °F -2.8 °F 1010.7 in WNW 18.5 mph 18.5 mph 72 % 0.0 in 0.0 W/m2 CLR
05:37 1.7 °F -2.8 °F 1010.7 in WNW 13.0 mph 13.0 mph 72 % 0.0 in 0.0 W/m2 CLR
05:42 1.7 °F -2.8 °F 1010.7 in West 16.7 mph 16.7 mph 72 % 0.0 in 0.0 W/m2 CLR
05:47 1.7 °F -2.8 °F 1010.7 in NW 16.7 mph 16.7 mph 72 % 0.0 in 0.0 W/m2 CLR
05:52 1.7 °F -3.1 °F 1010.4 in WNW 11.1 mph 11.1 mph 71 % 0.0 in 0.0 W/m2 CLR
05:57 1.7 °F -2.8 °F 1010.7 in WNW 13.0 mph 13.0 mph 72 % 0.0 in 0.0 W/m2 CLR
06:02 1.7 °F -2.8 °F 1010.7 in WNW 18.5 mph 18.5 mph 72 % 0.0 in 0.0 W/m2 CLR
06:07 1.7 °F -2.8 °F 1010.7 in WNW 22.2 mph 22.2 mph 72 % 0.0 in 0.0 W/m2 CLR
06:12 1.7 °F -2.8 °F 1010.4 in WNW 18.5 mph 18.5 mph 72 % 0.0 in 0.0 W/m2 CLR
06:17 1.7 °F -2.8 °F 1010.7 in West 22.2 mph 22.2 mph 72 % 0.0 in 0.0 W/m2 CLR
06:22 1.7 °F -2.8 °F 1010.7 in NW 22.5 mph 22.5 mph 72 % 0.0 in 0.0 W/m2 CLR
06:27 1.7 °F -2.8 °F 1010.4 in WNW 18.5 mph 18.5 mph 72 % 0.0 in 0.0 W/m2 CLR
06:32 1.7 °F -2.8 °F 1010.7 in West 18.5 mph 18.5 mph 72 % 0.0 in 0.0 W/m2 CLR
06:37 1.7 °F -2.8 °F 1010.7 in WNW 19.3 mph 19.3 mph 72 % 0.0 in 0.0 W/m2 CLR
06:42 1.7 °F -2.7 °F 1010.7 in NW 22.2 mph 22.2 mph 73 % 0.0 in 0.0 W/m2 CLR
06:47 1.7 °F -2.7 °F 1010.7 in NW 16.7 mph 16.7 mph 73 % 0.0 in 0.0 W/m2 CLR
06:57 1.7 °F -2.7 °F 1010.7 in WNW 20.4 mph 20.4 mph 73 % 0.0 in 0.0 W/m2 CLR
07:02 1.1 °F -3.2 °F 1010.7 in WNW 18.5 mph 18.5 mph 73 % 0.0 in 0.0 W/m2 CLR
07:07 1.1 °F -3.2 °F 1010.7 in WNW 22.2 mph 22.2 mph 73 % 0.0 in 0.0 W/m2 CLR
07:12 1.7 °F -2.7 °F 1010.4 in NW 14.8 mph 14.8 mph 73 % 0.0 in 0.0 W/m2 CLR
07:17 1.1 °F -3.2 °F 1010.4 in WNW 20.4 mph 20.4 mph 73 % 0.0 in 0.0 W/m2 CLR
07:22 1.7 °F -2.7 °F 1010.4 in WNW 25.7 mph 25.7 mph 73 % 0.0 in 0.0 W/m2 CLR
07:27 1.7 °F -2.7 °F 1010.4 in WNW 19.3 mph 19.3 mph 73 % 0.0 in 0.0 W/m2 CLR
07:32 1.7 °F -2.7 °F 1010.4 in NW 22.5 mph 22.5 mph 73 % 0.0 in 0.0 W/m2 CLR
07:37 1.7 °F -2.7 °F 1010.4 in WNW 22.2 mph 22.2 mph 73 % 0.0 in 0.0 W/m2 OVC
07:42 1.7 °F -2.7 °F 1010.7 in NW 22.2 mph 22.2 mph 73 % 0.0 in 0.0 W/m2 OVC
07:47 1.7 °F -2.7 °F 1010.7 in NW 20.9 mph 20.9 mph 73 % 0.0 in 5.0 W/m2 OVC
07:52 1.7 °F -2.7 °F 1010.4 in NW 16.7 mph 16.7 mph 73 % 0.0 in 9.0 W/m2 BKN
07:57 1.7 °F -2.7 °F 1010.4 in WNW 18.5 mph 18.5 mph 73 % 0.0 in 14.0 W/m2 BKN
08:02 1.7 °F -2.7 °F 1010.4 in NNW 24.1 mph 24.1 mph 73 % 0.0 in 18.0 W/m2 BKN
08:07 1.7 °F -2.7 °F 1010.7 in NW 24.1 mph 24.1 mph 73 % 0.0 in 23.0 W/m2 BKN
08:12 1.7 °F -2.7 °F 1010.7 in West 16.7 mph 16.7 mph 73 % 0.0 in 26.0 W/m2 BKN
08:17 1.7 °F -2.8 °F 1010.7 in WNW 20.4 mph 20.4 mph 72 % 0.0 in 35.0 W/m2 BKN
08:22 1.7 °F -2.8 °F 1010.7 in WNW 24.1 mph 24.1 mph 72 % 0.0 in 44.0 W/m2 BKN
08:27 1.7 °F -2.8 °F 1010.7 in NNW 18.5 mph 18.5 mph 72 % 0.0 in 54.0 W/m2 SCT
08:32 1.7 °F -3.1 °F 1010.7 in NW 22.2 mph 22.2 mph 71 % 0.0 in 63.0 W/m2 SCT
08:37 1.7 °F -3.1 °F 1010.7 in WNW 20.4 mph 20.4 mph 71 % 0.0 in 69.0 W/m2 FEW
08:42 1.7 °F -3.1 °F 1010.7 in WNW 27.4 mph 27.4 mph 71 % 0.0 in 88.0 W/m2 CLR
08:47 2.2 °F -2.7 °F 1010.7 in NW 22.5 mph 22.5 mph 70 % 0.0 in 100.0 W/m2 FEW
08:52 2.2 °F -2.7 °F 1010.7 in WNW 22.2 mph 22.2 mph 70 % 0.0 in 114.0 W/m2 CLR
08:57 2.2 °F -2.7 °F 1010.7 in NW 18.5 mph 18.5 mph 70 % 0.0 in 123.0 W/m2 CLR
09:02 2.2 °F -2.7 °F 1010.7 in WNW 19.3 mph 19.3 mph 70 % 0.0 in 120.0 W/m2 CLR
09:07 2.2 °F -2.9 °F 1010.7 in NW 25.9 mph 25.9 mph 69 % 0.0 in 128.0 W/m2 CLR
09:12 2.2 °F -2.7 °F 1010.7 in WNW 25.7 mph 25.7 mph 70 % 0.0 in 160.0 W/m2 CLR
09:17 2.8 °F -2.3 °F 1010.7 in NW 37.0 mph 37.0 mph 69 % 0.0 in 188.0 W/m2 CLR
09:22 2.8 °F -2.6 °F 1010.7 in NW 24.1 mph 24.1 mph 68 % 0.0 in 211.0 W/m2 CLR
09:27 2.8 °F -2.3 °F 1010.7 in WNW 25.9 mph 25.9 mph 69 % 0.0 in 232.0 W/m2 CLR
09:32 2.8 °F -2.6 °F 1010.7 in NW 31.5 mph 31.5 mph 68 % 0.0 in 253.0 W/m2 CLR
09:37 3.3 °F -2.2 °F 1010.7 in NW 31.5 mph 31.5 mph 67 % 0.0 in 264.0 W/m2 CLR
09:42 3.3 °F -2.2 °F 1010.7 in NW 25.9 mph 25.9 mph 67 % 0.0 in 287.0 W/m2 CLR
09:47 3.3 °F -2.2 °F 1010.7 in NW 30.6 mph 30.6 mph 67 % 0.0 in 290.0 W/m2 CLR
09:52 3.3 °F -2.2 °F 1010.4 in NNW 29.6 mph 29.6 mph 67 % 0.0 in 290.0 W/m2 CLR
09:57 3.9 °F -1.9 °F 1010.4 in NNW 35.4 mph 35.4 mph 66 % 0.0 in 323.0 W/m2 CLR
10:02 3.9 °F -1.9 °F 1010.4 in NNW 25.7 mph 25.7 mph 66 % 0.0 in 350.0 W/m2 CLR
10:07 3.9 °F -1.9 °F 1010.7 in NW 22.2 mph 22.2 mph 66 % 0.0 in 181.0 W/m2 CLR
10:12 3.9 °F -2.1 °F 1010.7 in North 24.1 mph 24.1 mph 65 % 0.0 in 403.0 W/m2 CLR
10:18 4.4 °F -1.8 °F 1010.4 in NNW 27.8 mph 27.8 mph 64 % 0.0 in 462.0 W/m2 CLR
10:23 4.4 °F -1.8 °F 1010.4 in WNW 22.2 mph 22.2 mph 64 % 0.0 in 397.0 W/m2 CLR
10:28 4.4 °F -2.0 °F 1010.4 in NNW 25.9 mph 25.9 mph 63 % 0.0 in 446.0 W/m2 CLR
10:33 5.0 °F -1.4 °F 1010.4 in NNW 32.2 mph 32.2 mph 63 % 0.0 in 485.0 W/m2 CLR
10:38 5.0 °F -1.4 °F 1010.7 in NNW 33.8 mph 33.8 mph 63 % 0.0 in 478.0 W/m2 CLR
10:43 5.0 °F -1.7 °F 1010.7 in North 33.3 mph 33.3 mph 62 % 0.0 in 485.0 W/m2 CLR
10:48 5.0 °F -1.7 °F 1010.7 in NNW 29.6 mph 29.6 mph 62 % 0.0 in 432.0 W/m2 CLR
10:53 5.0 °F -1.7 °F 1010.4 in NW 38.9 mph 38.9 mph 62 % 0.0 in 178.0 W/m2 CLR
10:58 5.0 °F -1.7 °F 1010.4 in NNW 33.3 mph 33.3 mph 62 % 0.0 in 272.0 W/m2 CLR
11:03 5.0 °F -1.7 °F 1010.4 in NW 29.0 mph 29.0 mph 62 % 0.0 in 545.0 W/m2 CLR
11:08 5.0 °F -1.9 °F 1010.4 in North 40.7 mph 40.7 mph 61 % 0.0 in 220.0 W/m2 CLR
11:13 5.0 °F -1.9 °F 1010.4 in NW 32.2 mph 32.2 mph 61 % 0.0 in 599.0 W/m2 CLR
11:18 5.6 °F -1.6 °F 1010.4 in WNW 35.2 mph 35.2 mph 60 % 0.0 in 610.0 W/m2 CLR
11:23 6.1 °F -1.3 °F 1010.4 in NW 27.8 mph 27.8 mph 59 % 0.0 in 573.0 W/m2 CLR
11:28 6.1 °F -1.3 °F 1010.4 in NW 35.2 mph 35.2 mph 59 % 0.0 in 598.0 W/m2 CLR
11:33 6.1 °F -1.3 °F 1010.4 in NNW 25.9 mph 25.9 mph 59 % 0.0 in 577.0 W/m2 CLR
11:38 7.2 °F -0.5 °F 1010.4 in North 27.8 mph 27.8 mph 58 % 0.0 in 577.0 W/m2 CLR
11:43 7.2 °F -0.7 °F 1010.4 in NNW 27.8 mph 27.8 mph 57 % 0.0 in 575.0 W/m2 CLR
11:48 7.2 °F -0.5 °F 1010.4 in NNW 27.8 mph 27.8 mph 58 % 0.0 in 585.0 W/m2 CLR
11:53 7.2 °F -1.2 °F 1010.0 in NW 33.3 mph 33.3 mph 55 % 0.0 in 496.0 W/m2 CLR
11:58 7.2 °F -1.0 °F 1010.4 in North 37.0 mph 37.0 mph 56 % 0.0 in 599.0 W/m2 CLR
12:03 7.8 °F -0.7 °F 1010.0 in NNW 37.0 mph 37.0 mph 55 % 0.0 in 622.0 W/m2 CLR
12:08 7.8 °F -0.7 °F 1010.0 in NNW 38.9 mph 38.9 mph 55 % 0.0 in 613.0 W/m2 CLR
12:13 7.8 °F -1.2 °F 1010.0 in NNW 37.0 mph 37.0 mph 53 % 0.0 in 599.0 W/m2 CLR
12:18 8.3 °F -0.9 °F 1010.0 in NNW 40.7 mph 40.7 mph 52 % 0.0 in 619.0 W/m2 CLR
12:23 8.3 °F -0.7 °F 1010.0 in North 27.8 mph 27.8 mph 53 % 0.0 in 619.0 W/m2 CLR
12:28 8.3 °F -0.7 °F 1009.7 in NW 31.5 mph 31.5 mph 53 % 0.0 in 622.0 W/m2 CLR
12:33 7.8 °F -1.7 °F 1009.7 in WNW 31.5 mph 31.5 mph 51 % 0.0 in 624.0 W/m2 CLR
12:38 7.8 °F -1.5 °F 1009.7 in NNW 37.0 mph 37.0 mph 52 % 0.0 in 635.0 W/m2 CLR
12:43 8.3 °F -0.9 °F 1009.7 in NNW 40.7 mph 40.7 mph 52 % 0.0 in 631.0 W/m2 CLR
12:48 8.3 °F -1.5 °F 1009.7 in NNW 27.8 mph 27.8 mph 50 % 0.0 in 622.0 W/m2 CLR
12:53 8.9 °F -0.7 °F 1009.7 in North 29.0 mph 29.0 mph 51 % 0.0 in 633.0 W/m2 CLR
12:58 8.9 °F -1.0 °F 1009.7 in NW 30.6 mph 30.6 mph 50 % 0.0 in 615.0 W/m2 CLR
13:03 8.9 °F -1.0 °F 1009.7 in North 29.6 mph 29.6 mph 50 % 0.0 in 624.0 W/m2 CLR
13:08 8.9 °F -1.6 °F 1009.4 in North 31.5 mph 31.5 mph 48 % 0.0 in 624.0 W/m2 CLR
13:13 9.4 °F -1.1 °F 1009.4 in NNW 37.0 mph 37.0 mph 48 % 0.0 in 647.0 W/m2 CLR
13:18 9.4 °F -1.3 °F 1009.4 in North 24.1 mph 24.1 mph 47 % 0.0 in 629.0 W/m2 CLR
13:23 8.9 °F -1.8 °F 1009.4 in NNW 29.6 mph 29.6 mph 47 % 0.0 in 638.0 W/m2 CLR
13:28 9.4 °F -1.3 °F 1009.4 in North 38.6 mph 38.6 mph 47 % 0.0 in 647.0 W/m2 CLR
13:33 9.4 °F -1.3 °F 1009.4 in NW 33.3 mph 33.3 mph 47 % 0.0 in 636.0 W/m2 CLR
13:38 9.4 °F -1.6 °F 1009.4 in NW 24.1 mph 24.1 mph 46 % 0.0 in 638.0 W/m2 CLR
13:43 9.4 °F -1.3 °F 1009.0 in NNW 29.6 mph 29.6 mph 47 % 0.0 in 636.0 W/m2 CLR
13:48 9.4 °F -1.9 °F 1009.0 in NNW 35.2 mph 35.2 mph 45 % 0.0 in 626.0 W/m2 CLR
13:53 9.4 °F -1.6 °F 1009.0 in NNW 25.9 mph 25.9 mph 46 % 0.0 in 629.0 W/m2 CLR
13:58 10.0 °F -1.1 °F 1009.0 in NNW 22.5 mph 22.5 mph 46 % 0.0 in 610.0 W/m2 CLR
14:03 10.0 °F -1.4 °F 1009.0 in NNW 29.6 mph 29.6 mph 45 % 0.0 in 621.0 W/m2 CLR
14:08 9.4 °F -2.2 °F 1009.0 in North 33.3 mph 33.3 mph 44 % 0.0 in 619.0 W/m2 CLR
14:13 10.0 °F -1.4 °F 1008.7 in North 27.8 mph 27.8 mph 45 % 0.0 in 608.0 W/m2 CLR
14:18 10.6 °F -1.5 °F 1008.7 in NW 31.5 mph 31.5 mph 43 % 0.0 in 621.0 W/m2 CLR
14:23 10.6 °F -1.2 °F 1008.7 in NNW 31.5 mph 31.5 mph 44 % 0.0 in 601.0 W/m2 CLR
14:28 10.6 °F -1.8 °F 1008.7 in North 31.5 mph 31.5 mph 42 % 0.0 in 587.0 W/m2 CLR
14:33 10.0 °F -2.0 °F 1008.7 in NW 24.1 mph 24.1 mph 43 % 0.0 in 596.0 W/m2 CLR
14:38 10.6 °F -2.2 °F 1008.7 in NNW 27.8 mph 27.8 mph 41 % 0.0 in 589.0 W/m2 CLR
14:43 10.6 °F -2.2 °F 1008.7 in NNW 24.1 mph 24.6 mph 41 % 0.0 in 584.0 W/m2 CLR
14:48 10.0 °F -3.0 °F 1008.7 in WNW 24.1 mph 24.1 mph 40 % 0.0 in 564.0 W/m2 CLR
14:54 10.0 °F -2.7 °F 1008.7 in NNW 20.4 mph 20.4 mph 41 % 0.0 in 545.0 W/m2 CLR
14:59 10.6 °F -2.5 °F 1008.7 in NW 22.5 mph 22.5 mph 40 % 0.0 in 536.0 W/m2 CLR
15:08 10.6 °F -2.8 °F 1008.4 in NW 33.3 mph 33.3 mph 39 % 0.0 in 531.0 W/m2 CLR
15:13 10.6 °F -3.2 °F 1008.4 in NNW 22.2 mph 22.2 mph 38 % 0.0 in 522.0 W/m2 CLR
15:18 10.6 °F -2.8 °F 1008.4 in WNW 29.6 mph 29.6 mph 39 % 0.0 in 512.0 W/m2 CLR
15:23 10.6 °F -3.2 °F 1008.0 in NW 29.6 mph 29.6 mph 38 % 0.0 in 504.0 W/m2 CLR
15:28 10.6 °F -3.2 °F 1008.0 in North 25.7 mph 25.7 mph 38 % 0.0 in 497.0 W/m2 CLR
15:33 10.6 °F -3.2 °F 1008.0 in NW 25.9 mph 25.9 mph 38 % 0.0 in 473.0 W/m2 CLR
15:38 10.6 °F -3.9 °F 1008.0 in NNW 25.9 mph 25.9 mph 36 % 0.0 in 478.0 W/m2 CLR
15:43 10.6 °F -3.9 °F 1008.0 in North 24.1 mph 24.1 mph 36 % 0.0 in 464.0 W/m2 CLR
15:48 10.6 °F -3.9 °F 1008.0 in NW 22.2 mph 22.2 mph 36 % 0.0 in 452.0 W/m2 CLR
15:53 11.1 °F -3.1 °F 1008.0 in NNW 32.2 mph 32.2 mph 37 % 0.0 in 439.0 W/m2 CLR
15:58 10.6 °F -3.6 °F 1008.0 in NW 29.6 mph 29.6 mph 37 % 0.0 in 434.0 W/m2 CLR
16:03 11.1 °F -3.4 °F 1008.0 in NW 33.3 mph 33.3 mph 36 % 0.0 in 420.0 W/m2 CLR
16:08 10.6 °F -3.6 °F 1007.7 in NW 22.2 mph 22.2 mph 37 % 0.0 in 406.0 W/m2 CLR
16:13 10.6 °F -4.3 °F 1007.7 in NW 31.5 mph 31.5 mph 35 % 0.0 in 388.0 W/m2 CLR
16:18 10.6 °F -4.3 °F 1007.7 in NNW 30.6 mph 30.6 mph 35 % 0.0 in 369.0 W/m2 CLR
16:23 10.6 °F -3.9 °F 1007.7 in NNW 20.9 mph 20.9 mph 36 % 0.0 in 360.0 W/m2 CLR
16:28 10.6 °F -4.3 °F 1007.7 in NW 22.2 mph 22.2 mph 35 % 0.0 in 346.0 W/m2 CLR
16:33 10.6 °F -4.3 °F 1007.7 in North 24.1 mph 24.1 mph 35 % 0.0 in 332.0 W/m2 CLR
16:38 10.6 °F -4.7 °F 1007.7 in North 22.2 mph 22.2 mph 34 % 0.0 in 315.0 W/m2 CLR
16:43 10.6 °F -4.7 °F 1007.7 in NW 24.1 mph 24.1 mph 34 % 0.0 in 306.0 W/m2 CLR
16:48 10.6 °F -4.7 °F 1007.7 in North 22.5 mph 22.5 mph 34 % 0.0 in 288.0 W/m2 CLR
16:53 10.6 °F -4.7 °F 1007.7 in North 29.6 mph 29.6 mph 34 % 0.0 in 276.0 W/m2 CLR
16:58 10.6 °F -5.1 °F 1007.7 in NNW 24.1 mph 24.1 mph 33 % 0.0 in 262.0 W/m2 CLR
17:03 10.6 °F -5.1 °F 1007.7 in North 24.1 mph 24.1 mph 33 % 0.0 in 246.0 W/m2 CLR
17:08 10.6 °F -4.7 °F 1007.7 in NNW 29.6 mph 29.6 mph 34 % 0.0 in 227.0 W/m2 CLR
17:13 10.0 °F -5.2 °F 1007.7 in NW 27.4 mph 27.4 mph 34 % 0.0 in 209.0 W/m2 CLR
17:18 10.0 °F -4.8 °F 1007.7 in NW 19.3 mph 19.3 mph 35 % 0.0 in 193.0 W/m2 CLR
17:23 9.4 °F -5.7 °F 1008.0 in NW 31.5 mph 31.5 mph 34 % 0.0 in 176.0 W/m2 CLR
17:28 9.4 °F -5.7 °F 1008.0 in NW 29.6 mph 29.6 mph 34 % 0.0 in 155.0 W/m2 CLR
17:33 9.4 °F -5.3 °F 1008.0 in NNW 33.3 mph 33.3 mph 35 % 0.0 in 137.0 W/m2 CLR
17:38 9.4 °F -5.3 °F 1008.0 in North 33.3 mph 33.3 mph 35 % 0.0 in 121.0 W/m2 CLR
17:43 9.4 °F -5.3 °F 1008.0 in NW 22.2 mph 22.2 mph 35 % 0.0 in 105.0 W/m2 CLR
17:48 8.9 °F -5.8 °F 1007.7 in NNW 29.0 mph 29.0 mph 35 % 0.0 in 91.0 W/m2 CLR
17:53 8.9 °F -5.8 °F 1007.7 in NW 22.2 mph 22.2 mph 35 % 0.0 in 69.0 W/m2 FEW
17:58 8.9 °F -5.8 °F 1007.7 in NW 18.5 mph 18.5 mph 35 % 0.0 in 60.0 W/m2 SCT
18:03 8.3 °F -5.9 °F 1007.7 in NW 24.1 mph 24.1 mph 36 % 0.0 in 49.0 W/m2 SCT
18:08 8.3 °F -6.3 °F 1007.7 in NW 29.0 mph 29.0 mph 35 % 0.0 in 40.0 W/m2 BKN
18:13 8.3 °F -6.3 °F 1007.7 in NNW 31.5 mph 31.5 mph 35 % 0.0 in 28.0 W/m2 BKN
18:18 7.8 °F -6.8 °F 1007.7 in NW 31.5 mph 31.5 mph 35 % 0.0 in 21.0 W/m2 BKN
18:23 7.8 °F -6.8 °F 1008.0 in WNW 25.9 mph 25.9 mph 35 % 0.0 in 18.0 W/m2 BKN
18:28 7.8 °F -6.8 °F 1008.0 in NW 20.4 mph 20.4 mph 35 % 0.0 in 14.0 W/m2 BKN
18:33 7.8 °F -6.8 °F 1008.0 in NW 18.5 mph 18.5 mph 35 % 0.0 in 11.0 W/m2 BKN
18:38 7.2 °F -7.2 °F 1007.7 in WNW 22.2 mph 22.2 mph 35 % 0.0 in 7.0 W/m2 BKN
18:43 7.2 °F -7.6 °F 1008.0 in NW 18.5 mph 18.5 mph 34 % 0.0 in 5.0 W/m2 OVC
18:48 7.2 °F -7.6 °F 1008.0 in NW 20.4 mph 20.4 mph 34 % 0.0 in 0.0 W/m2 OVC
18:53 7.2 °F -7.6 °F 1008.0 in NW 16.7 mph 16.7 mph 34 % 0.0 in 0.0 W/m2 CLR
18:58 7.2 °F -8.0 °F 1008.0 in NW 22.2 mph 22.2 mph 33 % 0.0 in 0.0 W/m2 CLR
19:03 6.7 °F -8.5 °F 1008.4 in NW 19.3 mph 19.3 mph 33 % 0.0 in 0.0 W/m2 CLR
19:08 6.7 °F -8.5 °F 1008.4 in WNW 20.4 mph 20.4 mph 33 % 0.0 in 0.0 W/m2 CLR
19:13 6.7 °F -8.5 °F 1008.4 in NW 27.8 mph 27.8 mph 33 % 0.0 in 0.0 W/m2 CLR
19:18 6.7 °F -8.9 °F 1008.4 in WNW 31.5 mph 31.5 mph 32 % 0.0 in 0.0 W/m2 CLR
19:23 6.7 °F -8.9 °F 1008.4 in NW 25.9 mph 25.9 mph 32 % 0.0 in 0.0 W/m2 CLR
19:28 6.7 °F -8.9 °F 1008.4 in NNW 31.5 mph 31.5 mph 32 % 0.0 in 0.0 W/m2 CLR
19:33 6.7 °F -8.9 °F 1008.4 in NW 27.8 mph 27.8 mph 32 % 0.0 in 0.0 W/m2 CLR
19:38 6.1 °F -9.4 °F 1008.4 in WNW 33.3 mph 33.3 mph 32 % 0.0 in 0.0 W/m2 CLR
19:44 6.1 °F -9.4 °F 1008.4 in NW 25.9 mph 25.9 mph 32 % 0.0 in 0.0 W/m2 CLR
19:49 6.1 °F -9.4 °F 1008.7 in NW 29.6 mph 29.6 mph 32 % 0.0 in 0.0 W/m2 CLR
19:54 6.1 °F -9.4 °F 1008.7 in NW 33.3 mph 33.3 mph 32 % 0.0 in 0.0 W/m2 CLR
19:59 6.1 °F -9.0 °F 1008.4 in NW 37.0 mph 37.0 mph 33 % 0.0 in 0.0 W/m2 CLR
20:04 6.1 °F -9.0 °F 1008.7 in NW 29.6 mph 29.6 mph 33 % 0.0 in 0.0 W/m2 CLR
20:09 6.1 °F -9.0 °F 1008.7 in NNW 24.1 mph 24.1 mph 33 % 0.0 in 0.0 W/m2 CLR
20:14 5.6 °F -9.5 °F 1008.7 in NW 38.9 mph 38.9 mph 33 % 0.0 in 0.0 W/m2 CLR
20:19 5.6 °F -9.1 °F 1008.7 in WNW 29.0 mph 29.0 mph 34 % 0.0 in 0.0 W/m2 CLR
20:24 5.6 °F -9.1 °F 1008.7 in NW 29.6 mph 29.6 mph 34 % 0.0 in 0.0 W/m2 CLR
20:29 5.6 °F -9.1 °F 1008.7 in NW 33.3 mph 33.3 mph 34 % 0.0 in 0.0 W/m2 CLR
20:34 5.6 °F -8.7 °F 1008.7 in NW 35.2 mph 35.2 mph 35 % 0.0 in 0.0 W/m2 CLR
20:39 5.6 °F -9.1 °F 1008.7 in WNW 31.5 mph 31.5 mph 34 % 0.0 in 0.0 W/m2 CLR
20:44 5.6 °F -8.7 °F 1008.7 in NW 38.9 mph 38.9 mph 35 % 0.0 in 0.0 W/m2 CLR
20:49 5.0 °F -9.2 °F 1009.0 in NW 31.5 mph 31.5 mph 35 % 0.0 in 0.0 W/m2 CLR
20:54 5.0 °F -8.9 °F 1009.0 in NW 35.4 mph 35.4 mph 36 % 0.0 in 0.0 W/m2 CLR
20:59 5.0 °F -8.9 °F 1009.0 in WNW 24.1 mph 24.1 mph 36 % 0.0 in 0.0 W/m2 CLR
21:04 5.0 °F -8.5 °F 1009.0 in NW 33.3 mph 33.3 mph 37 % 0.0 in 0.0 W/m2 CLR
21:09 5.0 °F -8.5 °F 1009.0 in NW 31.5 mph 31.5 mph 37 % 0.0 in 0.0 W/m2 CLR
21:14 5.0 °F -8.2 °F 1009.4 in NW 29.6 mph 29.6 mph 38 % 0.0 in 0.0 W/m2 CLR
21:19 4.4 °F -8.7 °F 1009.0 in NW 31.5 mph 31.5 mph 38 % 0.0 in 0.0 W/m2 CLR
21:24 4.4 °F -8.7 °F 1009.0 in NW 25.9 mph 25.9 mph 38 % 0.0 in 0.0 W/m2 CLR
21:29 4.4 °F -8.3 °F 1009.4 in NW 32.2 mph 32.2 mph 39 % 0.0 in 0.0 W/m2 CLR
21:34 4.4 °F -8.3 °F 1009.4 in WNW 29.6 mph 29.6 mph 39 % 0.0 in 0.0 W/m2 CLR
21:39 4.4 °F -8.0 °F 1009.4 in NW 27.8 mph 27.8 mph 40 % 0.0 in 0.0 W/m2 CLR
21:44 4.4 °F -8.0 °F 1009.4 in NW 22.5 mph 22.5 mph 40 % 0.0 in 0.0 W/m2 CLR
21:49 4.4 °F -7.7 °F 1009.7 in WNW 25.9 mph 25.9 mph 41 % 0.0 in 0.0 W/m2 CLR
21:54 4.4 °F -7.7 °F 1009.7 in NW 29.6 mph 29.6 mph 41 % 0.0 in 0.0 W/m2 CLR
21:59 3.9 °F -8.2 °F 1009.7 in WNW 24.1 mph 24.1 mph 41 % 0.0 in 0.0 W/m2 CLR
22:04 3.9 °F -7.9 °F 1010.0 in West 20.4 mph 20.4 mph 42 % 0.0 in 0.0 W/m2 CLR
22:09 3.9 °F -7.6 °F 1010.0 in WNW 18.5 mph 18.5 mph 43 % 0.0 in 0.0 W/m2 CLR
22:14 3.9 °F -7.6 °F 1010.0 in WNW 24.1 mph 24.1 mph 43 % 0.0 in 0.0 W/m2 CLR
22:19 3.9 °F -7.3 °F 1010.0 in WNW 25.9 mph 25.9 mph 44 % 0.0 in 0.0 W/m2 CLR
22:24 3.9 °F -7.0 °F 1010.0 in NW 35.2 mph 35.2 mph 45 % 0.0 in 0.0 W/m2 CLR
22:29 3.9 °F -6.7 °F 1010.0 in NW 31.5 mph 31.5 mph 46 % 0.0 in 0.0 W/m2 CLR
22:34 3.9 °F -6.7 °F 1010.0 in NW 31.5 mph 31.5 mph 46 % 0.0 in 0.0 W/m2 CLR
22:39 3.3 °F -6.9 °F 1010.0 in NW 31.5 mph 31.5 mph 47 % 0.0 in 0.0 W/m2 CLR
22:44 3.3 °F -6.9 °F 1010.0 in WNW 27.8 mph 27.8 mph 47 % 0.0 in 0.0 W/m2 CLR
22:49 3.3 °F -6.7 °F 1010.0 in NW 31.5 mph 31.5 mph 48 % 0.0 in 0.0 W/m2 CLR
22:54 3.3 °F -6.4 °F 1010.0 in NW 25.9 mph 25.9 mph 49 % 0.0 in 0.0 W/m2 CLR
22:59 3.3 °F -6.1 °F 1010.0 in NW 24.1 mph 24.1 mph 50 % 0.0 in 0.0 W/m2 CLR
23:04 3.3 °F -6.1 °F 1010.4 in WNW 25.9 mph 25.9 mph 50 % 0.0 in 0.0 W/m2 CLR
23:09 3.3 °F -6.1 °F 1010.0 in NW 27.8 mph 27.8 mph 50 % 0.0 in 0.0 W/m2 CLR
23:14 3.3 °F -5.8 °F 1010.4 in NW 25.9 mph 25.9 mph 51 % 0.0 in 0.0 W/m2 CLR
23:19 2.8 °F -6.4 °F 1010.4 in WNW 29.6 mph 29.6 mph 51 % 0.0 in 0.0 W/m2 CLR
23:24 2.8 °F -6.1 °F 1010.4 in NW 22.2 mph 22.2 mph 52 % 0.0 in 0.0 W/m2 CLR
23:29 2.8 °F -6.1 °F 1010.4 in WNW 29.6 mph 29.6 mph 52 % 0.0 in 0.0 W/m2 CLR
23:34 2.8 °F -5.9 °F 1010.7 in WNW 35.2 mph 35.2 mph 53 % 0.0 in 0.0 W/m2 CLR
23:39 2.8 °F -5.9 °F 1010.7 in WNW 27.8 mph 27.8 mph 53 % 0.0 in 0.0 W/m2 CLR
23:44 2.2 °F -6.2 °F 1010.7 in NW 33.3 mph 33.3 mph 54 % 0.0 in 0.0 W/m2 CLR
23:49 2.2 °F -6.2 °F 1010.7 in WNW 33.3 mph 33.3 mph 54 % 0.0 in 0.0 W/m2 CLR
23:54 2.2 °F -5.9 °F 1010.7 in WNW 29.6 mph 29.6 mph 55 % 0.0 in 0.0 W/m2 CLR
23:59 2.2 °F -5.7 °F 1010.7 in WNW 27.8 mph 27.8 mph 56 % 0.0 in 0.0 W/m2 CLR
Lo Temps de Massalio
Compliments of Weather Underground - 1.25 mb